Weather at Abbottabad Airport [CLOSED]

Public forecast

Using degrees Celsius for public forecast. Weather courtesy of forecast.io.

Closest aviation weather report (METAR) to Abbottabad Airport

Closest report is Islamabad International Airport, 41.0 nm (76.0 km) SSW.

2024/07/18 16:30 (retrieved 25 minutes ago)

OPIS 181630Z 09004KT 6000 FEW040 SCT100 29/23 Q1000 NOSIG

Closest aviation forecast (TAF) to Abbottabad Airport

Closest forecast is Islamabad International Airport, 41.0 nm (76.0 km) SSW.

2024/07/18 12:00 (retrieved 5 hours ago)

TAF OPIS 181110Z 1812/1918 14010KT 5000 HZ FEW040 SCT100 BECMG 1815/1821 09010KT 5000 FU SCT040 BKN100 TEMPO 1821/1903 02015G35KT 2000 TSRA FEW030CB BKN040 OVC100 BECMG 1906/1909 11010KT 6000 FEW040 SCT100